Time;durP1;ratioP1;P1;durP2;ratioP2;P2;SDS_P1;SDS_P2;PMS_P1;PMS_P2;Temp;Humidity;BMP_temperature;BMP_pressure;BME280_temperature;BME280_humidity;BME280_pressure;Samples;Min_cycle;Max_cycle;Signal;HPM_P1;HPM_P2
2024/01/17 00:03:55;;;;;;;18.13;8.65;;;9.50;99.90;;;;;;10535770;28;20058;-64
2024/01/17 00:08:57;;;;;;;18.73;7.28;;;9.00;99.90;;;;;;10539276;28;20140;-63
2024/01/17 00:14:00;;;;;;;14.50;8.20;;;9.00;99.90;;;;;;10540280;28;20173;-64
2024/01/17 00:19:02;;;;;;;15.63;8.73;;;9.20;99.90;;;;;;10539518;28;20043;-63
2024/01/17 00:24:04;;;;;;;9.98;5.93;;;9.10;99.90;;;;;;10541292;28;20086;-63
2024/01/17 00:29:08;;;;;;;13.33;6.43;;;9.50;99.90;;;;;;10533780;28;20180;-63
2024/01/17 00:34:10;;;;;;;12.35;7.55;;;10.00;99.90;;;;;;10542220;27;20122;-63
2024/01/17 00:39:13;;;;;;;11.88;5.85;;;9.50;99.90;;;;;;10545255;27;20074;-65
2024/01/17 00:44:19;;;;;;;13.73;7.55;;;10.40;99.90;;;;;;10548813;27;20486;-62
2024/01/17 00:49:21;;;;;;;12.20;7.32;;;10.00;99.90;;;;;;10545611;28;20495;-64
2024/01/17 00:54:23;;;;;;;16.15;7.93;;;9.50;99.90;;;;;;10546776;27;20039;-64
2024/01/17 00:59:27;;;;;;;12.25;7.05;;;9.90;99.90;;;;;;10541492;27;20442;-64
2024/01/17 01:04:29;;;;;;;17.80;8.80;;;9.00;99.90;;;;;;10545301;27;20062;-63
2024/01/17 01:09:31;;;;;;;11.35;7.07;;;10.20;99.90;;;;;;10543555;27;20058;-64
2024/01/17 01:14:34;;;;;;;12.73;6.28;;;9.90;99.90;;;;;;10541379;27;20879;-63
2024/01/17 01:19:37;;;;;;;11.15;5.70;;;10.50;99.90;;;;;;10542972;27;20157;-63
2024/01/17 01:24:39;;;;;;;11.82;4.75;;;10.40;99.90;;;;;;10542884;27;20059;-63
2024/01/17 01:29:42;;;;;;;15.20;6.68;;;10.60;99.90;;;;;;10547870;27;20055;-63
2024/01/17 01:34:44;;;;;;;12.77;6.60;;;10.40;99.90;;;;;;10545805;27;20051;-63
2024/01/17 01:39:46;;;;;;;15.02;7.07;;;9.80;99.90;;;;;;10543351;28;20055;-65
2024/01/17 01:44:50;;;;;;;7.72;4.85;;;9.90;99.90;;;;;;10544674;27;20048;-63
2024/01/17 01:49:53;;;;;;;13.15;6.63;;;10.10;99.90;;;;;;10544747;27;20608;-64
2024/01/17 01:54:55;;;;;;;9.57;6.37;;;10.10;99.90;;;;;;10546305;27;20502;-64
2024/01/17 01:59:59;;;;;;;12.45;6.65;;;10.30;99.90;;;;;;10547231;27;20472;-64
2024/01/17 02:05:04;;;;;;;11.65;6.18;;;10.00;99.90;;;;;;10541512;28;20120;-65
2024/01/17 02:10:07;;;;;;;17.73;5.82;;;10.60;99.90;;;;;;10538546;27;20124;-64
2024/01/17 02:15:10;;;;;;;;;;;9.80;99.90;;;;;;10541447;27;20058;-64
2024/01/17 02:20:13;;;;;;;13.98;6.82;;;9.80;99.90;;;;;;10540539;27;19931;-64
2024/01/17 02:25:17;;;;;;;16.27;5.40;;;9.70;99.90;;;;;;10540548;27;20845;-64
2024/01/17 02:30:19;;;;;;;8.00;5.13;;;9.70;99.90;;;;;;10545528;27;20047;-65
2024/01/17 02:35:21;;;;;;;18.13;7.43;;;10.20;99.90;;;;;;10539715;27;20134;-63
2024/01/17 02:40:24;;;;;;;12.23;6.78;;;9.60;99.90;;;;;;10545212;27;20406;-64
2024/01/17 02:45:26;;;;;;;12.07;6.57;;;9.40;99.90;;;;;;10543741;27;20048;-63
2024/01/17 02:50:28;;;;;;;8.80;6.05;;;9.60;99.90;;;;;;10541284;28;20084;-63
2024/01/17 02:55:32;;;;;;;13.60;8.02;;;8.70;99.90;;;;;;10538802;27;20055;-65
2024/01/17 03:00:34;;;;;;;12.43;6.85;;;8.70;99.90;;;;;;10534319;27;20166;-63
2024/01/17 03:05:37;;;;;;;12.20;5.40;;;9.10;99.90;;;;;;10539271;27;20055;-64
2024/01/17 03:10:40;;;;;;;13.05;5.47;;;9.60;99.90;;;;;;10540665;27;20039;-64
2024/01/17 03:15:42;;;;;;;12.95;7.55;;;9.90;99.90;;;;;;10536113;27;20063;-64
2024/01/17 03:20:44;;;;;;;13.80;6.68;;;9.90;99.90;;;;;;10543633;28;20058;-64
2024/01/17 03:25:48;;;;;;;14.65;6.10;;;9.70;99.90;;;;;;10545257;27;20101;-64
2024/01/17 03:30:49;;;;;;;9.70;5.43;;;10.10;99.90;;;;;;10547520;28;20055;-64
2024/01/17 03:35:51;;;;;;;13.30;7.30;;;10.10;99.90;;;;;;10540275;27;20054;-65
2024/01/17 03:40:56;;;;;;;9.98;6.10;;;10.00;99.90;;;;;;10547346;27;20052;-64
2024/01/17 03:45:58;;;;;;;11.43;5.57;;;10.40;99.90;;;;;;10539385;28;20043;-64
2024/01/17 03:51:00;;;;;;;11.95;6.60;;;10.30;99.90;;;;;;10547221;28;20168;-64
2024/01/17 03:56:03;;;;;;;9.40;4.95;;;10.40;99.90;;;;;;10541699;27;20249;-64
2024/01/17 04:15:33;;;;;;;11.52;6.60;;;10.20;99.90;;;;;;10585601;27;20115;-64
2024/01/17 04:20:36;;;;;;;11.60;5.00;;;10.40;99.90;;;;;;10603645;27;20879;-62
2024/01/17 04:25:38;;;;;;;9.47;4.10;;;10.40;99.90;;;;;;10602246;27;20510;-63
2024/01/17 04:30:41;;;;;;;17.48;7.10;;;10.50;99.90;;;;;;10593299;27;20449;-63
2024/01/17 04:35:43;;;;;;;9.93;6.00;;;10.30;99.90;;;;;;10589658;27;20062;-63
2024/01/17 04:40:45;;;;;;;13.75;5.93;;;10.10;99.90;;;;;;10605672;27;20065;-64
2024/01/17 04:45:51;;;;;;;16.05;6.60;;;10.60;99.90;;;;;;10593015;27;20058;-63
2024/01/17 04:50:58;;;;;;;15.93;5.47;;;10.50;99.90;;;;;;10598116;27;20055;-63
2024/01/17 04:56:01;;;;;;;13.38;6.45;;;10.80;99.90;;;;;;10601272;27;20066;-64
2024/01/17 05:01:05;;;;;;;13.32;6.43;;;11.00;99.90;;;;;;10592841;27;20178;-63
2024/01/17 05:06:08;;;;;;;9.02;5.07;;;11.00;99.90;;;;;;10595139;27;20287;-64
2024/01/17 05:11:10;;;;;;;11.90;6.28;;;11.00;99.90;;;;;;10590281;27;20533;-63
2024/01/17 05:16:13;;;;;;;8.83;4.20;;;11.20;99.90;;;;;;10598974;27;20511;-67
2024/01/17 05:21:16;;;;;;;7.43;3.72;;;11.20;99.90;;;;;;10592042;27;20081;-64
2024/01/17 05:26:18;;;;;;;7.00;4.73;;;11.30;99.90;;;;;;10555767;27;20467;-62
2024/01/17 05:31:21;;;;;;;10.25;5.53;;;11.30;99.90;;;;;;10565046;27;20066;-63
2024/01/17 05:36:23;;;;;;;12.18;5.55;;;11.30;99.90;;;;;;10562542;27;20065;-63
2024/01/17 05:41:25;;;;;;;10.52;5.63;;;11.30;99.90;;;;;;10567440;27;20170;-64
2024/01/17 05:46:28;;;;;;;15.90;6.30;;;11.40;99.90;;;;;;10560461;27;20092;-63
2024/01/17 05:51:30;;;;;;;12.80;6.00;;;11.30;99.90;;;;;;10556402;27;20097;-64
2024/01/17 05:56:34;;;;;;;8.03;5.53;;;11.40;99.90;;;;;;10568295;27;20116;-64
2024/01/17 06:01:37;;;;;;;10.18;5.18;;;11.40;99.90;;;;;;10558792;27;20119;-63
2024/01/17 06:06:39;;;;;;;10.93;5.97;;;11.40;99.90;;;;;;10551969;27;20083;-64
2024/01/17 06:11:41;;;;;;;8.82;4.38;;;11.50;99.90;;;;;;10562439;27;20788;-65
2024/01/17 06:16:46;;;;;;;9.02;3.70;;;11.50;99.90;;;;;;10555011;27;20458;-65
2024/01/17 06:21:48;;;;;;;15.43;6.00;;;11.60;99.90;;;;;;10551139;27;20406;-64
2024/01/17 06:26:50;;;;;;;8.98;4.15;;;11.60;99.90;;;;;;10561126;27;20128;-64
2024/01/17 06:31:53;;;;;;;8.17;4.07;;;11.60;99.90;;;;;;10569851;27;20054;-65
2024/01/17 06:36:56;;;;;;;9.35;4.80;;;11.60;99.90;;;;;;10562841;27;20059;-63
2024/01/17 06:41:57;;;;;;;20.67;6.03;;;11.70;99.90;;;;;;10561990;27;20056;-65
2024/01/17 06:47:01;;;;;;;7.10;3.67;;;11.70;99.90;;;;;;10555534;27;20105;-65
2024/01/17 06:52:03;;;;;;;15.07;4.78;;;11.70;99.90;;;;;;10556761;27;20502;-65
2024/01/17 06:57:07;;;;;;;8.88;5.40;;;11.70;99.90;;;;;;10560083;27;20078;-66
2024/01/17 07:02:11;;;;;;;10.88;6.07;;;11.70;99.90;;;;;;10563423;27;20861;-64
2024/01/17 07:07:13;;;;;;;11.30;5.53;;;11.60;99.90;;;;;;10564137;27;20051;-64
2024/01/17 07:12:16;;;;;;;7.45;4.75;;;11.60;99.90;;;;;;10557205;27;20184;-65
2024/01/17 07:17:19;;;;;;;16.03;6.97;;;11.60;99.90;;;;;;10547639;27;20149;-65
2024/01/17 07:22:21;;;;;;;12.85;6.38;;;11.60;99.90;;;;;;10552437;27;20512;-65
2024/01/17 07:27:23;;;;;;;11.20;5.32;;;11.70;99.90;;;;;;10561910;27;20125;-64
2024/01/17 07:32:27;;;;;;;16.13;6.20;;;11.70;99.90;;;;;;10562935;27;20893;-64
2024/01/17 07:37:28;;;;;;;10.45;5.25;;;11.80;99.90;;;;;;10562377;27;20051;-66
2024/01/17 07:42:31;;;;;;;11.95;4.85;;;11.80;99.90;;;;;;10555854;27;20096;-65
2024/01/17 07:47:34;;;;;;;12.17;5.57;;;11.70;99.90;;;;;;10551880;27;20043;-64
2024/01/17 07:52:38;;;;;;;7.25;3.90;;;11.70;99.90;;;;;;10559971;27;20102;-64
2024/01/17 07:57:45;;;;;;;9.25;4.80;;;11.70;99.90;;;;;;10553164;27;20093;-64
2024/01/17 08:02:48;;;;;;;9.43;3.97;;;11.70;99.90;;;;;;10551340;27;20051;-65
2024/01/17 08:07:50;;;;;;;12.07;4.28;;;11.80;99.90;;;;;;10548197;27;20106;-65
2024/01/17 08:12:54;;;;;;;9.45;4.72;;;11.80;99.90;;;;;;10550062;28;20064;-65
2024/01/17 08:17:58;;;;;;;10.95;4.43;;;11.80;99.90;;;;;;10554921;28;21092;-64
2024/01/17 08:23:00;;;;;;;8.18;4.05;;;11.70;99.90;;;;;;10550098;28;20101;-64
2024/01/17 08:28:03;;;;;;;11.63;5.15;;;11.70;99.90;;;;;;10546781;28;20146;-65
2024/01/17 08:33:06;;;;;;;10.52;5.60;;;11.60;99.90;;;;;;10549110;28;20040;-64
2024/01/17 08:38:08;;;;;;;10.90;4.35;;;11.70;99.90;;;;;;10552793;28;20868;-65
2024/01/17 08:43:10;;;;;;;11.88;5.90;;;11.70;99.90;;;;;;10552008;28;20935;-67
2024/01/17 08:48:14;;;;;;;17.63;5.03;;;11.70;99.90;;;;;;10543650;28;22200;-64
2024/01/17 08:53:16;;;;;;;11.20;5.95;;;11.70;99.90;;;;;;10545783;28;20170;-64
2024/01/17 08:58:18;;;;;;;9.77;4.43;;;11.60;99.90;;;;;;10547329;27;20051;-63
2024/01/17 09:03:21;;;;;;;8.10;4.15;;;11.70;99.90;;;;;;10558744;27;20481;-64
2024/01/17 09:08:24;;;;;;;12.18;5.20;;;11.60;99.90;;;;;;10554402;27;20131;-64
2024/01/17 09:13:26;;;;;;;13.43;4.80;;;11.70;99.90;;;;;;10555426;27;20476;-64
2024/01/17 09:18:30;;;;;;;10.20;5.53;;;11.70;99.90;;;;;;10553627;27;23114;-65
2024/01/17 09:23:32;;;;;;;10.88;5.07;;;11.60;99.90;;;;;;10557703;27;20047;-65
2024/01/17 09:28:34;;;;;;;10.70;5.30;;;11.60;99.90;;;;;;10550521;27;20082;-65
2024/01/17 09:33:38;;;;;;;10.57;4.25;;;11.70;99.90;;;;;;10559330;27;20067;-64
2024/01/17 09:38:40;;;;;;;11.57;5.03;;;11.70;99.90;;;;;;10556687;27;20474;-65
2024/01/17 09:43:42;;;;;;;10.35;4.57;;;11.70;99.90;;;;;;10555554;27;20047;-65
2024/01/17 09:48:46;;;;;;;9.57;5.33;;;11.80;99.90;;;;;;10552194;27;20051;-64
2024/01/17 09:53:51;;;;;;;10.63;4.53;;;11.80;99.90;;;;;;10557601;27;20052;-63
2024/01/17 09:58:55;;;;;;;14.27;5.90;;;11.70;99.90;;;;;;10566158;27;20048;-63
2024/01/17 10:04:01;;;;;;;9.00;4.60;;;11.80;99.90;;;;;;10560446;27;20039;-64
2024/01/17 10:09:03;;;;;;;7.25;3.80;;;11.90;99.90;;;;;;10565510;27;20665;-64
2024/01/17 10:14:05;;;;;;;;;;;11.90;99.90;;;;;;10566765;27;20047;-65
2024/01/17 10:19:09;;;;;;;11.07;5.05;;;12.00;99.90;;;;;;10560371;27;19935;-65
2024/01/17 10:24:12;;;;;;;6.93;3.97;;;12.00;99.90;;;;;;10562379;27;20580;-64
2024/01/17 10:29:15;;;;;;;14.93;6.00;;;12.00;99.90;;;;;;10558582;27;20502;-64
2024/01/17 10:34:18;;;;;;;9.02;4.07;;;12.10;99.90;;;;;;10565860;27;20065;-65
2024/01/17 10:39:20;;;;;;;13.43;5.97;;;12.10;99.90;;;;;;10563670;27;20115;-64
2024/01/17 10:44:25;;;;;;;17.93;6.90;;;12.10;99.90;;;;;;10559972;27;20054;-64
2024/01/17 10:49:30;;;;;;;12.63;6.65;;;11.80;99.90;;;;;;10561136;27;20480;-66
2024/01/17 10:54:41;;;;;;;6.72;3.88;;;11.50;99.90;;;;;;10558940;27;20171;-64
2024/01/17 10:59:49;;;;;;;8.93;4.75;;;11.90;99.90;;;;;;10560677;27;20051;-65
2024/01/17 11:04:59;;;;;;;12.43;5.65;;;12.10;99.90;;;;;;10558548;27;20509;-65
2024/01/17 11:10:04;;;;;;;8.45;4.20;;;12.10;99.90;;;;;;10560387;27;20067;-65
2024/01/17 11:15:07;;;;;;;7.97;4.93;;;12.20;99.90;;;;;;10558404;27;20384;-64
2024/01/17 11:20:13;;;;;;;;;;;12.20;99.90;;;;;;10550956;27;20852;-64
2024/01/17 11:25:21;;;;;;;11.35;5.43;;;12.20;99.90;;;;;;10554104;27;20524;-64
2024/01/17 11:30:36;;;;;;;12.23;5.47;;;12.20;99.90;;;;;;10565057;27;20050;-66
2024/01/17 11:35:44;;;;;;;12.48;6.25;;;12.20;99.90;;;;;;10554475;27;20418;-65
2024/01/17 11:40:46;;;;;;;13.82;5.65;;;12.20;99.90;;;;;;10560607;27;20095;-65
2024/01/17 11:45:50;;;;;;;13.95;6.55;;;12.30;99.90;;;;;;10553430;27;20115;-63
2024/01/17 11:51:00;;;;;;;14.82;6.78;;;12.30;99.90;;;;;;10558761;27;20521;-65
2024/01/17 11:56:05;;;;;;;12.15;6.88;;;12.40;99.90;;;;;;10557741;27;20724;-65
2024/01/17 12:01:07;;;;;;;14.77;6.65;;;12.50;99.90;;;;;;10556733;27;20129;-64
2024/01/17 12:06:11;;;;;;;14.83;6.03;;;12.40;99.90;;;;;;10559404;28;20070;-64
2024/01/17 12:11:14;;;;;;;14.40;6.70;;;12.40;99.90;;;;;;10552243;27;20560;-65
2024/01/17 12:16:21;;;;;;;13.63;6.45;;;12.40;99.90;;;;;;10550256;28;20047;-65
2024/01/17 12:21:24;;;;;;;18.30;7.60;;;12.40;99.90;;;;;;10546526;28;20058;-65
2024/01/17 12:26:28;;;;;;;16.13;7.43;;;12.40;99.90;;;;;;10542031;27;20991;-63
2024/01/17 12:31:30;;;;;;;12.88;7.68;;;12.40;99.90;;;;;;10542768;27;20039;-62
2024/01/17 12:36:35;;;;;;;18.42;6.78;;;12.40;99.90;;;;;;10558302;27;20099;-63
2024/01/17 12:41:38;;;;;;;13.60;8.02;;;12.40;99.90;;;;;;10559899;27;20058;-64
2024/01/17 12:46:40;;;;;;;;;;;12.40;99.90;;;;;;10559719;27;20058;-65
2024/01/17 12:51:43;;;;;;;18.27;7.05;;;12.40;99.90;;;;;;10556603;27;19928;-64
2024/01/17 12:56:46;;;;;;;15.50;6.80;;;12.40;99.90;;;;;;10567321;27;20046;-64
2024/01/17 13:01:48;;;;;;;18.70;7.07;;;12.40;99.90;;;;;;10562888;27;20068;-63
2024/01/17 13:06:57;;;;;;;13.77;6.77;;;12.50;99.90;;;;;;10566192;27;20060;-63
2024/01/17 13:12:00;;;;;;;14.60;6.18;;;12.40;99.90;;;;;;10563886;27;20055;-63
2024/01/17 13:17:04;;;;;;;14.90;6.72;;;12.40;99.90;;;;;;10562943;27;20043;-63
2024/01/17 13:22:07;;;;;;;18.63;7.57;;;12.50;99.90;;;;;;10562645;27;21592;-63
2024/01/17 13:27:09;;;;;;;12.55;6.78;;;12.50;99.90;;;;;;10559118;27;20788;-63
2024/01/17 13:32:11;;;;;;;17.38;8.02;;;12.60;99.90;;;;;;10562235;27;20059;-63
2024/01/17 13:37:15;;;;;;;12.55;6.50;;;12.60;99.90;;;;;;10559064;27;20060;-63
2024/01/17 13:42:17;;;;;;;14.52;6.43;;;12.60;99.90;;;;;;10566342;27;20043;-62
2024/01/17 13:47:19;;;;;;;;;;;12.60;99.90;;;;;;10564317;27;20055;-65
2024/01/17 13:52:25;;;;;;;10.60;6.05;;;12.60;99.90;;;;;;10549329;27;20433;-64
2024/01/17 13:57:27;;;;;;;12.23;5.75;;;12.60;99.90;;;;;;10562593;27;20039;-63
2024/01/17 14:02:29;;;;;;;11.20;6.10;;;12.70;99.90;;;;;;10556192;27;20050;-63
2024/01/17 14:07:32;;;;;;;11.90;6.30;;;12.70;99.90;;;;;;10563060;27;20050;-63
2024/01/17 14:12:35;;;;;;;13.90;5.93;;;12.70;99.90;;;;;;10562609;27;20048;-65
2024/01/17 14:17:37;;;;;;;9.63;5.50;;;12.70;99.90;;;;;;10557689;27;20085;-63
2024/01/17 14:22:40;;;;;;;11.48;5.68;;;12.70;99.90;;;;;;10563764;27;20063;-63
2024/01/17 14:27:42;;;;;;;12.98;5.80;;;12.70;99.90;;;;;;10559855;27;20646;-63
2024/01/17 14:32:45;;;;;;;8.50;4.90;;;12.70;99.90;;;;;;10560609;27;20859;-64
2024/01/17 14:37:48;;;;;;;13.73;5.10;;;12.80;99.90;;;;;;10550011;27;20050;-63
2024/01/17 14:42:51;;;;;;;11.98;4.97;;;12.90;99.90;;;;;;10559143;27;20062;-63
2024/01/17 14:47:53;;;;;;;12.50;5.18;;;12.90;99.90;;;;;;10552755;27;20108;-65
2024/01/17 14:52:57;;;;;;;8.73;5.03;;;12.80;99.90;;;;;;10554811;27;20051;-63
2024/01/17 14:57:59;;;;;;;8.93;5.10;;;12.80;99.90;;;;;;10552296;27;20112;-63
2024/01/17 15:03:01;;;;;;;7.82;5.72;;;12.90;99.90;;;;;;10542291;27;20243;-64
2024/01/17 15:08:06;;;;;;;9.87;4.93;;;12.90;99.90;;;;;;10541187;27;20047;-63
2024/01/17 15:13:08;;;;;;;7.40;4.05;;;12.90;99.90;;;;;;10544979;27;20936;-62
2024/01/17 15:18:10;;;;;;;10.98;4.38;;;12.90;99.90;;;;;;10550354;27;20039;-64
2024/01/17 15:23:13;;;;;;;12.05;6.45;;;12.90;99.90;;;;;;10555423;27;20172;-63
2024/01/17 15:28:15;;;;;;;8.57;4.22;;;12.90;99.90;;;;;;10548398;27;20092;-64
2024/01/17 15:33:17;;;;;;;11.02;6.70;;;12.90;99.90;;;;;;10551445;27;20112;-65
2024/01/17 15:38:21;;;;;;;14.13;6.00;;;12.80;99.90;;;;;;10544589;27;20048;-63
2024/01/17 15:43:23;;;;;;;9.32;4.90;;;12.80;99.90;;;;;;10550970;27;20072;-64
2024/01/17 15:48:26;;;;;;;10.10;5.40;;;12.80;99.90;;;;;;10547710;27;20054;-63
2024/01/17 15:53:33;;;;;;;9.43;4.20;;;12.90;99.90;;;;;;10545180;27;23131;-64
2024/01/17 15:58:35;;;;;;;8.20;3.97;;;12.90;99.90;;;;;;10545164;27;20054;-62
2024/01/17 16:03:37;;;;;;;12.23;3.77;;;12.90;99.90;;;;;;10564383;27;20067;-62
2024/01/17 16:08:40;;;;;;;6.65;3.72;;;13.00;99.90;;;;;;10554937;27;20058;-62
2024/01/17 16:13:42;;;;;;;6.78;3.55;;;12.90;99.90;;;;;;10550120;27;20075;-64
2024/01/17 16:18:44;;;;;;;44.97;19.60;;;12.90;99.90;;;;;;10543818;28;20671;-64
2024/01/17 16:23:48;;;;;;;12.73;5.85;;;12.90;99.90;;;;;;10548901;28;20044;-66
2024/01/17 16:28:50;;;;;;;10.52;4.82;;;12.90;99.90;;;;;;10543396;28;20363;-64
2024/01/17 16:33:52;;;;;;;13.27;4.13;;;12.90;99.90;;;;;;10556635;28;20533;-62
2024/01/17 16:38:56;;;;;;;12.93;6.07;;;12.90;99.90;;;;;;10548394;28;20043;-63
2024/01/17 16:43:58;;;;;;;17.15;9.52;;;12.90;99.90;;;;;;10550698;28;20043;-63
2024/01/17 16:49:00;;;;;;;9.52;5.70;;;12.90;99.90;;;;;;10550268;28;20919;-64
2024/01/17 16:54:04;;;;;;;14.03;9.33;;;12.80;99.90;;;;;;10553118;27;20139;-63
2024/01/17 16:59:06;;;;;;;20.50;9.15;;;12.10;99.90;;;;;;10553595;28;20071;-63
2024/01/17 17:04:08;;;;;;;22.42;9.57;;;12.00;99.90;;;;;;10556447;27;20585;-63
2024/01/17 17:09:12;;;;;;;13.10;7.50;;;11.80;99.90;;;;;;10553578;28;20047;-64
2024/01/17 17:14:15;;;;;;;16.77;8.48;;;11.50;99.90;;;;;;10551916;28;20189;-64
2024/01/17 17:19:17;;;;;;;14.00;6.30;;;11.60;99.90;;;;;;10538100;27;20580;-63
2024/01/17 17:24:21;;;;;;;18.87;10.30;;;11.90;99.90;;;;;;10560424;27;20073;-63
2024/01/17 17:29:23;;;;;;;8.52;4.55;;;12.60;99.90;;;;;;10552901;27;20058;-65
2024/01/17 17:34:25;;;;;;;12.45;5.43;;;12.90;99.90;;;;;;10547136;27;20074;-64
2024/01/17 17:39:29;;;;;;;14.83;4.67;;;12.90;99.90;;;;;;10554479;27;20056;-63
2024/01/17 17:44:34;;;;;;;15.45;7.32;;;12.80;99.90;;;;;;10556647;27;20065;-63
2024/01/17 17:49:38;;;;;;;11.60;4.75;;;13.20;99.90;;;;;;10564165;27;20050;-64
2024/01/17 17:54:41;;;;;;;22.25;8.65;;;12.90;99.90;;;;;;10555556;27;20187;-64
2024/01/17 17:59:44;;;;;;;21.88;9.90;;;12.60;99.90;;;;;;10560151;27;20111;-65
2024/01/17 18:04:46;;;;;;;19.42;7.78;;;12.20;99.90;;;;;;10562211;27;20035;-63
2024/01/17 18:09:49;;;;;;;20.27;8.80;;;12.10;99.90;;;;;;10559258;27;20066;-63
2024/01/17 18:14:51;;;;;;;18.63;8.50;;;11.90;99.90;;;;;;10559050;27;20870;-65
2024/01/17 18:19:55;;;;;;;19.65;8.70;;;11.90;99.90;;;;;;10560647;27;20056;-65
2024/01/17 18:24:58;;;;;;;21.85;7.85;;;11.90;99.90;;;;;;10562645;27;20047;-64
2024/01/17 18:30:00;;;;;;;16.92;9.27;;;11.90;99.90;;;;;;10551564;27;20384;-64
2024/01/17 18:35:05;;;;;;;14.80;7.60;;;11.80;99.90;;;;;;10556737;27;20047;-62
2024/01/17 18:40:11;;;;;;;17.70;7.43;;;11.70;99.90;;;;;;10558399;27;20054;-65
2024/01/17 18:45:13;;;;;;;17.85;7.95;;;11.60;99.90;;;;;;10554839;27;20051;-62
2024/01/17 18:50:15;;;;;;;24.57;9.17;;;11.50;99.90;;;;;;10559530;27;20435;-63
2024/01/17 18:55:18;;;;;;;17.23;7.30;;;11.50;99.90;;;;;;10556641;27;20051;-62
2024/01/17 19:00:21;;;;;;;11.95;6.90;;;12.20;99.90;;;;;;10553246;27;20132;-64
2024/01/17 19:05:23;;;;;;;14.85;6.07;;;12.50;99.90;;;;;;10548245;27;20257;-64
2024/01/17 19:10:27;;;;;;;10.55;4.85;;;12.60;99.90;;;;;;10557741;27;20429;-63
2024/01/17 19:15:29;;;;;;;13.77;6.00;;;12.70;99.90;;;;;;10554984;27;20054;-65
2024/01/17 19:20:32;;;;;;;15.02;6.95;;;12.70;99.90;;;;;;10555206;27;20134;-65
2024/01/17 19:25:35;;;;;;;12.70;6.03;;;12.70;99.90;;;;;;10554164;27;20782;-62
2024/01/17 19:30:37;;;;;;;14.23;5.43;;;12.70;99.90;;;;;;10553316;27;20566;-63
2024/01/17 19:35:39;;;;;;;16.57;5.03;;;12.70;99.90;;;;;;10558912;27;20047;-63
2024/01/17 19:40:43;;;;;;;7.65;3.90;;;12.70;99.90;;;;;;10557292;27;20822;-63
2024/01/17 19:45:45;;;;;;;12.27;4.80;;;12.70;99.90;;;;;;10549704;27;20173;-63
2024/01/17 19:50:47;;;;;;;10.00;4.60;;;12.70;99.90;;;;;;10558754;27;20062;-64
2024/01/17 19:55:51;;;;;;;10.50;3.27;;;12.80;99.90;;;;;;10552397;27;20055;-67
2024/01/17 20:00:53;;;;;;;10.95;4.10;;;12.80;99.90;;;;;;10553980;27;20051;-64
2024/01/17 20:05:55;;;;;;;18.37;3.20;;;12.70;99.90;;;;;;10551037;27;20089;-63
2024/01/17 20:11:03;;;;;;;10.37;4.47;;;12.60;99.90;;;;;;10550963;27;20094;-63
2024/01/17 20:16:05;;;;;;;13.48;3.70;;;12.70;99.90;;;;;;10549671;27;20051;-63
2024/01/17 20:21:07;;;;;;;6.93;3.25;;;12.60;99.90;;;;;;10552861;27;20055;-63
2024/01/17 20:26:10;;;;;;;6.93;3.73;;;12.60;99.90;;;;;;10555261;27;20063;-63
2024/01/17 20:31:12;;;;;;;7.63;3.22;;;12.70;99.90;;;;;;10554910;28;20208;-63
2024/01/17 20:36:16;;;;;;;9.70;2.93;;;12.60;99.90;;;;;;10543188;28;20044;-63
2024/01/17 20:41:20;;;;;;;13.73;3.17;;;12.70;99.90;;;;;;10541624;28;20057;-63
2024/01/17 20:46:22;;;;;;;6.57;3.08;;;12.70;99.90;;;;;;10547231;28;20099;-64
2024/01/17 20:51:25;;;;;;;8.00;2.93;;;12.70;99.90;;;;;;10550251;28;20085;-63
2024/01/17 20:56:28;;;;;;;;;;;12.70;99.90;;;;;;10564137;27;20539;-64
2024/01/17 21:01:32;;;;;;;7.40;2.90;;;12.70;99.90;;;;;;10555388;27;20022;-63
2024/01/17 21:06:34;;;;;;;10.55;2.97;;;12.70;99.90;;;;;;10561379;27;20140;-63
2024/01/17 21:11:37;;;;;;;4.65;2.33;;;12.70;99.90;;;;;;10557839;27;20177;-64
2024/01/17 21:16:39;;;;;;;9.32;2.30;;;12.70;99.90;;;;;;10552511;27;20054;-64
2024/01/17 21:21:42;;;;;;;5.72;2.13;;;12.70;99.90;;;;;;10566440;27;20058;-62
2024/01/17 21:26:45;;;;;;;6.53;2.33;;;12.70;99.90;;;;;;10560817;27;20191;-62
2024/01/17 21:31:47;;;;;;;13.43;2.83;;;12.60;99.90;;;;;;10568848;27;20134;-61
2024/01/17 21:36:50;;;;;;;10.27;2.33;;;12.60;99.90;;;;;;10560302;27;20071;-62
2024/01/17 21:41:53;;;;;;;;;;;12.60;99.90;;;;;;10561577;27;20084;-62
2024/01/17 21:46:55;;;;;;;8.00;2.20;;;12.70;99.90;;;;;;10555934;27;19942;-61
2024/01/17 21:51:58;;;;;;;11.55;3.10;;;12.80;99.90;;;;;;10562319;27;20051;-63
2024/01/17 21:57:05;;;;;;;6.57;2.55;;;12.70;99.90;;;;;;10563732;27;20070;-62
2024/01/17 22:02:07;;;;;;;8.02;2.03;;;12.70;99.90;;;;;;10569165;27;20064;-61
2024/01/17 22:07:09;;;;;;;4.72;2.05;;;12.80;99.90;;;;;;10567856;27;20062;-63
2024/01/17 22:12:12;;;;;;;8.57;2.10;;;12.80;99.90;;;;;;10561776;27;20791;-62
2024/01/17 22:17:15;;;;;;;5.55;2.28;;;12.70;99.90;;;;;;10561496;27;20498;-62
2024/01/17 22:22:17;;;;;;;7.70;2.55;;;12.70;99.90;;;;;;10572880;27;20078;-61
2024/01/17 22:27:23;;;;;;;9.88;3.53;;;12.70;99.90;;;;;;10571673;27;20499;-62
2024/01/17 22:32:25;;;;;;;10.15;3.30;;;12.60;99.90;;;;;;10560362;27;20413;-62
2024/01/17 22:37:27;;;;;;;9.40;2.78;;;12.60;99.90;;;;;;10570730;27;20043;-62
2024/01/17 22:42:30;;;;;;;11.10;2.50;;;12.60;99.90;;;;;;10559430;27;20118;-63
2024/01/17 22:47:33;;;;;;;8.98;2.42;;;12.60;99.90;;;;;;10544717;27;20075;-62
2024/01/17 22:52:35;;;;;;;18.42;3.53;;;12.60;99.90;;;;;;10568894;27;20052;-62
2024/01/17 22:57:38;;;;;;;7.50;2.63;;;12.50;99.90;;;;;;10564082;27;20050;-64
2024/01/17 23:02:40;;;;;;;6.68;3.10;;;12.50;99.90;;;;;;10561639;27;20059;-62
2024/01/17 23:07:42;;;;;;;8.00;3.40;;;12.50;99.90;;;;;;10567785;27;20055;-62
2024/01/17 23:12:46;;;;;;;9.10;3.60;;;12.50;99.90;;;;;;10562962;27;20075;-62
2024/01/17 23:17:48;;;;;;;8.63;3.38;;;12.50;99.90;;;;;;10558242;27;20073;-62
2024/01/17 23:22:49;;;;;;;11.02;4.68;;;12.40;99.90;;;;;;10559797;27;20055;-63
2024/01/17 23:27:53;;;;;;;8.80;3.58;;;12.40;99.90;;;;;;10556014;27;20054;-62
2024/01/17 23:32:55;;;;;;;9.00;3.70;;;12.40;99.90;;;;;;10557284;27;20089;-64
2024/01/17 23:37:57;;;;;;;7.15;2.40;;;12.30;99.90;;;;;;10562885;27;20047;-63
2024/01/17 23:43:01;;;;;;;10.30;3.67;;;12.30;99.90;;;;;;10567323;27;20051;-62
2024/01/17 23:48:03;;;;;;;13.23;3.30;;;12.30;99.90;;;;;;10566392;27;20054;-62
2024/01/17 23:53:05;;;;;;;8.73;3.27;;;12.30;99.90;;;;;;10567197;27;20418;-62
2024/01/17 23:58:09;;;;;;;9.18;3.22;;;12.30;99.90;;;;;;10550166;27;20054;-62
